Details From DAAG - Alger Houari Boumediene
To DABS - Cheikh Larbi Tebessi
Flight Number -
Tags Generated
Created
Modified
Stats Distance 251 nm / 465 km
Max Altitude 0 ft / 0 m
Waypoints 2
Social Downloads 1
Likes 0
Share VATSIM

Download

Looking for another format? Having issues loading an existing format? Contact us
Advertisement - Login to hide

Notes

Generated

Route

DAAG DABS

ID Type Via Altitude Latitude Longitude Leg Dist Tot Dist Heading (true) Name
O DAAG APT - 0 ft / 0 m 36.69213˚ 3.17083˚ - 0 nm - -
O DABS APT - 0 ft / 0 m 35.43568˚ 8.10811˚ 251 nm 251 nm 106° / 109° -

Altitude Profile

Advertisement - Login to hide

Weather


0- 5 10 15 20 25 30 35+ Temperature / ° C

Clouds and Precipitation
Forecast for 2017-12-18 12:00 UTC. Updated an hour ago

Ground ~20,000 ft ~40,000 ft Winds

DAAG

Details ICAO DAAG (ALG)
Name Alger Houari Boumediene
Region Algeria
Timezone Africa/Algiers (UTC+1.0)
Stats Elevation 82 ft / 25 m (AMSL)
Location 36.697521° 3.213079°
Runways 2
Magnetic Variation 1.058° E

METAR

DAAG 181230Z 13002KT 9999 FEW020TCU FEW026CB BKN036 12/09 Q1030

Decode

TAF

TAF DAAG 181100Z 1812/1912 24005KT 9999 FEW020 SCT040 TEMPO 1812/1816 FEW023TCU FEW026CB PROB40 TEMPO 1904/1912 FEW023TCU FEW026CB

Decode

Departure Runways

ID Width Length Bearing (true) Bearing (mag) Surface Threshold Offset Overrun Length
05 197 ft / 60 m 11,459 ft / 3,493 m 52.87° 51.81° Asphalt 0 ft / 0 m 0 ft / 0 m
09 148 ft / 45 m 11,442 ft / 3,487 m 91.75° 90.69° Asphalt 0 ft / 0 m 1,017 ft / 310 m
23 197 ft / 60 m 11,459 ft / 3,493 m 232.89° 231.83° Asphalt 0 ft / 0 m 0 ft / 0 m
27 148 ft / 45 m 11,442 ft / 3,487 m 271.78° 270.72° Asphalt 0 ft / 0 m 0 ft / 0 m

DABS

Details ICAO DABS (TEE)
Name CHEIKH LARBI TEBESSI
Region Algeria
Timezone Africa/Algiers (UTC+1.0)
Stats Elevation 2,661 ft / 811 m (AMSL)
Location 35.431610° 8.120716°
Runways 2
Magnetic Variation 1.969° E

METAR

DABS 181200Z 34014KT 9999 FEW020 BKN033 07/02 Q1025

Decode

TAF

TAF DABS 181100Z 1812/1912 34018KT 9999 FEW023 BKN033 TEMPO 1812/1818 32015G30KT 5000 -TSRA FEW026CB BECMG 1819/1821 24008KT PROB40 TEMPO 1821/1903 2000 -SHRA SCT023CB

Decode

Destination Runways

ID Width Length Bearing (true) Bearing (mag) Surface Threshold Offset Overrun Length
11 148 ft / 45 m 9,850 ft / 3,002 m 112.75° 110.78° Asphalt 0 ft / 0 m 345 ft / 105 m
12 98 ft / 30 m 7,867 ft / 2,398 m 121.86° 119.89° Asphalt 0 ft / 0 m 0 ft / 0 m
29 148 ft / 45 m 9,850 ft / 3,002 m 292.76° 290.79° Asphalt 0 ft / 0 m 345 ft / 105 m
30 98 ft / 30 m 7,867 ft / 2,398 m 301.88° 299.91° Asphalt 0 ft / 0 m 0 ft / 0 m

Popular Alternatives